Search for airport 
image banner adimage banner ad
image banner ad

FQIN - Inhambane / National

Located in Inhambane, Mozambique

ICAO - FQIN, IATA - INH

Data provided by Airmate  

General information

Coordinates: S23°52'0" E35°24'60"
Elevation is 30 feet MSL.
 
View others Airports in Inhambane Province

Operational data

Open for public use
Current time UTC:
Current local time:
Weather
METAR: FQIN 211700Z 17006KT 9999 SCT020 27/19 Q1013
TAF: TAF FQIN 211000Z 2112/2212 15012KT 9999 SCT020 TX31/2113Z TN26/2203Z BECMG 2200/2202 22011KT BECMG 2206/2208 16010G20KT
View NOTAMs / SUP AIP / TFR affecting this airport [VIEW]
Communications frequencies: [VIEW]

Runways:

RWY identifierQFULength (ft)Width (ft)SurfaceLDA (ft)
0647°262598SAN
24262598
16492198
34492198

Airport contact information

Address: Inhambane Mozambique

Satellite view of FQIN